Time;durP1;ratioP1;P1;durP2;ratioP2;P2;SDS_P1;SDS_P2;PMS_P1;PMS_P2;Temp;Humidity;BMP_temperature;BMP_pressure;BME280_temperature;BME280_humidity;BME280_pressure;Samples;Min_cycle;Max_cycle;Signal;HPM_P1;HPM_P2
2022/11/15 00:01:31;;;;;;;46.08;20.00;;;;;;;-143.48;87.15;78970.09;5037280;28;20500;-33
2022/11/15 00:03:56;;;;;;;42.58;19.00;;;;;;;-143.48;87.47;78987.94;5035407;28;20025;-33
2022/11/15 00:06:22;;;;;;;39.40;18.38;;;;;;;-143.48;87.54;78987.94;5036100;28;20025;-33
2022/11/15 00:08:47;;;;;;;39.10;18.65;;;;;;;-143.48;88.20;78993.91;5018608;28;20029;-32
2022/11/15 00:11:12;;;;;;;46.75;19.83;;;;;;;-143.48;88.44;78991.91;5036258;28;20049;-32
2022/11/15 00:13:38;;;;;;;50.00;19.75;;;;;;;-143.48;88.66;78985.97;5036079;28;20025;-33
2022/11/15 00:16:04;;;;;;;47.85;19.85;;;;;;;-143.48;88.92;78974.06;5036206;28;20030;-33
2022/11/15 00:18:30;;;;;;;47.78;20.25;;;;;;;-143.48;88.85;78962.16;5035988;28;20029;-32
2022/11/15 00:21:02;;;;;;;50.83;20.05;;;;;;;-143.48;89.13;78964.16;5036291;28;20045;-32
2022/11/15 00:23:27;;;;;;;44.67;19.25;;;;;;;-143.48;89.24;78970.09;5036396;28;20036;-33
2022/11/15 00:25:57;;;;;;;50.67;19.52;;;;;;;-143.48;89.77;78956.22;5036729;28;20017;-33
2022/11/15 00:28:22;;;;;;;50.17;20.05;;;;;;;-143.48;90.27;78956.22;5018725;28;20086;-32
2022/11/15 00:30:47;;;;;;;58.65;21.58;;;;;;;-143.48;90.92;78950.25;5036252;28;20112;-32
2022/11/15 00:33:13;;;;;;;52.60;19.92;;;;;;;-143.48;90.81;78952.25;5036184;28;20104;-33
2022/11/15 00:35:38;;;;;;;51.97;20.83;;;;;;;-143.48;91.02;78948.28;5036371;28;20385;-33
2022/11/15 00:38:03;;;;;;;50.10;19.27;;;;;;;-143.48;90.69;78938.34;5036533;28;20029;-33
2022/11/15 00:40:29;;;;;;;44.83;19.25;;;;;;;-143.48;91.59;78936.38;5036769;28;20057;-32
2022/11/15 00:42:55;;;;;;;54.88;20.85;;;;;;;-143.48;91.83;78954.22;5036224;28;20494;-33
2022/11/15 00:45:20;;;;;;;59.33;21.25;;;;;;;-143.48;91.91;78934.38;5034876;28;20022;-32
2022/11/15 00:47:46;;;;;;;58.45;20.63;;;;;;;-143.48;92.21;78930.41;5036200;28;20022;-32
2022/11/15 00:50:12;;;;;;;53.60;20.30;;;;;;;-143.48;92.32;78926.47;5036286;28;20032;-33
2022/11/15 00:52:37;;;;;;;56.35;20.30;;;;;;;-143.48;92.38;78924.47;5035973;28;20544;-32
2022/11/15 00:55:03;;;;;;;47.45;19.95;;;;;;;-143.48;92.69;78916.53;5036300;28;20033;-33
2022/11/15 00:57:28;;;;;;;55.70;20.23;;;;;;;-143.48;92.62;78912.56;5036141;28;20104;-33
2022/11/15 00:59:53;;;;;;;53.13;20.73;;;;;;;-143.48;92.78;78918.53;5036162;28;20112;-33
2022/11/15 01:02:18;;;;;;;58.50;21.42;;;;;;;-143.48;93.06;78918.53;5036430;28;20342;-32
2022/11/15 01:04:44;;;;;;;62.47;20.30;;;;;;;-143.48;93.40;78910.59;5035783;28;20040;-32
2022/11/15 01:07:09;;;;;;;61.00;20.80;;;;;;;-143.48;93.30;78904.63;5035869;28;20354;-33
2022/11/15 01:09:40;;;;;;;63.15;21.83;;;;;;;-143.48;93.43;78896.69;5034914;28;20018;-33
2022/11/15 01:12:05;;;;;;;66.70;22.05;;;;;;;-143.48;93.53;78884.81;5035749;28;20018;-33
2022/11/15 01:14:31;;;;;;;62.22;22.23;;;;;;;-143.48;93.26;78884.81;5035497;28;20423;-32
2022/11/15 01:16:56;;;;;;;59.38;21.42;;;;;;;-143.48;93.17;78890.75;5035863;28;20541;-33
2022/11/15 01:19:21;;;;;;;61.92;20.92;;;;;;;-143.48;94.12;78904.63;5035581;28;20031;-33
2022/11/15 01:21:49;;;;;;;61.60;22.25;;;;;;;-143.48;94.20;78894.72;5035453;28;20490;-33
2022/11/15 01:24:14;;;;;;;66.28;22.98;;;;;;;-143.48;94.25;78884.81;5035438;28;20036;-32
2022/11/15 01:26:40;;;;;;;69.15;22.90;;;;;;;-143.48;94.11;78880.84;5035037;28;20104;-32
2022/11/15 01:29:05;;;;;;;62.63;22.30;;;;;;;-143.48;94.30;78876.88;5035941;28;20078;-32
2022/11/15 01:31:30;;;;;;;60.60;22.80;;;;;;;-143.48;94.33;78876.88;5035611;28;20017;-32
2022/11/15 01:33:56;;;;;;;62.13;22.33;;;;;;;-143.48;94.51;78861.00;5035468;28;20025;-33
2022/11/15 01:36:22;;;;;;;60.47;21.65;;;;;;;-143.48;93.92;78855.06;5035767;28;20033;-33
2022/11/15 01:38:54;;;;;;;55.65;21.58;;;;;;;-143.48;94.67;78847.13;5035760;28;20059;-33
2022/11/15 01:41:22;;;;;;;60.20;21.70;;;;;;;-143.48;94.80;78843.16;5035364;28;20104;-33
2022/11/15 01:44:46;;;;;;;64.00;21.85;;;;;;;-143.48;94.58;78839.19;5035278;28;20099;-33
2022/11/15 01:47:23;;;;;;;64.95;21.55;;;;;;;-143.48;94.93;78839.19;5017693;28;20103;-33
2022/11/15 01:50:00;;;;;;;56.90;21.50;;;;;;;-143.48;94.41;78825.31;5034853;28;20025;-33
2022/11/15 01:52:28;;;;;;;66.28;22.63;;;;;;;-143.48;95.26;78823.31;5034515;28;20025;-32
2022/11/15 01:55:00;;;;;;;57.28;20.95;;;;;;;-143.48;94.95;78815.38;5035115;28;20029;-33
2022/11/15 01:57:26;;;;;;;67.55;23.27;;;;;;;-143.48;95.51;78809.44;5035084;28;20025;-32
2022/11/15 01:59:51;;;;;;;57.90;21.92;;;;;;;-143.48;95.39;78805.47;5035045;28;20364;-33
2022/11/15 02:02:17;;;;;;;60.65;22.73;;;;;;;-143.48;95.59;78801.50;5034942;28;20456;-33
2022/11/15 02:04:45;;;;;;;59.92;23.00;;;;;;;-143.48;95.98;78797.53;5034951;28;20495;-33
2022/11/15 02:07:15;;;;;;;59.63;22.60;;;;;;;-143.48;95.64;78785.63;5034595;28;20021;-33
2022/11/15 02:09:40;;;;;;;58.92;22.55;;;;;;;-143.48;95.53;78789.59;5034548;28;20036;-33
2022/11/15 02:12:08;;;;;;;67.13;23.27;;;;;;;-143.48;95.79;78771.75;5034480;28;20476;-32
2022/11/15 02:14:35;;;;;;;64.78;23.23;;;;;;;-143.48;95.39;78757.88;5015345;28;20048;-33
2022/11/15 02:17:24;;;;;;;64.68;23.48;;;;;;;-143.48;95.46;78743.97;5034419;28;20025;-32
2022/11/15 02:20:08;;;;;;;63.20;23.10;;;;;;;-143.48;95.24;78740.00;5033970;28;20052;-33
2022/11/15 02:23:13;;;;;;;62.08;22.95;;;;;;;-143.48;95.27;78724.16;5034895;28;20036;-34
2022/11/15 02:25:52;;;;;;;67.35;23.77;;;;;;;-143.48;95.76;78728.13;5034453;28;20528;-33
2022/11/15 02:28:32;;;;;;;62.22;24.10;;;;;;;-143.48;95.74;78718.19;5034558;28;20071;-33
2022/11/15 02:31:11;;;;;;;67.68;23.75;;;;;;;-143.48;95.90;78710.25;5034455;28;20468;-33
2022/11/15 02:33:54;;;;;;;76.53;24.90;;;;;;;-143.48;96.11;78704.31;5034071;28;20052;-33
2022/11/15 02:36:54;;;;;;;64.50;24.33;;;;;;;-143.48;95.73;78692.41;5034593;28;20435;-33
2022/11/15 02:39:39;;;;;;;70.05;24.10;;;;;;;-143.48;96.29;78682.50;5030585;28;20045;-33
2022/11/15 02:43:56;;;;;;;64.38;23.00;;;;;;;-143.48;96.10;78682.50;5034605;28;20029;-33
2022/11/15 02:44:59;;;;;;;68.25;24.48;;;;;;;-143.48;96.63;78674.56;5033807;28;20045;-33
2022/11/15 02:47:27;;;;;;;60.17;23.75;;;;;;;-143.48;96.74;78660.69;5034738;28;20159;-33
2022/11/15 02:49:56;;;;;;;62.75;24.45;;;;;;;-143.48;96.94;78654.72;5034092;28;20091;-32
2022/11/15 02:52:25;;;;;;;60.15;23.75;;;;;;;-143.48;96.86;78646.78;5034547;28;20018;-33
2022/11/15 02:54:57;;;;;;;68.35;24.48;;;;;;;-143.48;96.93;78634.91;5032952;28;20029;-33
2022/11/15 02:57:30;;;;;;;65.03;24.65;;;;;;;-143.48;96.91;78628.94;5033690;28;20388;-33
2022/11/15 03:00:03;;;;;;;65.22;25.02;;;;;;;-143.48;96.81;78630.94;5033591;28;20487;-33
2022/11/15 03:02:46;;;;;;;65.45;24.85;;;;;;;-143.48;97.21;78634.91;5033204;28;20164;-32
2022/11/15 03:05:17;;;;;;;69.78;24.17;;;;;;;-143.48;97.67;78624.97;5033720;28;20036;-33
2022/11/15 03:07:45;;;;;;;71.65;24.92;;;;;;;-143.48;97.40;78634.91;5033559;28;20033;-33
2022/11/15 03:10:36;;;;;;;81.78;25.10;;;;;;;-143.48;97.48;78630.94;5033788;28;20112;-32
2022/11/15 03:13:22;;;;;;;68.20;25.00;;;;;;;-143.48;97.89;78617.03;5033776;28;20061;-33
2022/11/15 03:16:02;;;;;;;73.97;25.67;;;;;;;-143.48;98.30;78630.94;5033680;28;20388;-33
2022/11/15 03:18:38;;;;;;;76.82;24.88;;;;;;;-143.48;98.42;78626.97;5034091;28;20068;-33
2022/11/15 03:21:07;;;;;;;73.82;26.10;;;;;;;-143.48;98.20;78626.97;5033292;28;20042;-33
2022/11/15 03:23:34;;;;;;;75.47;25.27;;;;;;;-143.48;98.56;78619.03;5033434;28;20026;-32
2022/11/15 03:26:00;;;;;;;69.32;25.58;;;;;;;-143.48;98.42;78613.06;5033992;28;20057;-33
2022/11/15 03:28:36;;;;;;;78.32;25.98;;;;;;;-143.48;98.48;78613.06;5032305;28;20033;-32
2022/11/15 03:31:46;;;;;;;81.28;26.73;;;;;;;-143.48;98.78;78615.06;5033685;28;20469;-32
2022/11/15 03:33:51;;;;;;;81.13;28.40;;;;;;;-143.48;98.66;78599.19;5037277;28;20056;-33
2022/11/15 03:36:17;;;;;;;81.47;26.20;;;;;;;-143.48;98.96;78611.09;5037564;28;20067;-33
2022/11/15 03:38:44;;;;;;;75.20;26.00;;;;;;;-143.48;99.04;78599.19;5037356;28;20472;-33
2022/11/15 03:41:22;;;;;;;82.40;26.23;;;;;;;-143.48;99.01;78601.19;5037411;28;20067;-33
2022/11/15 03:43:55;;;;;;;67.00;26.25;;;;;;;-143.48;99.18;78591.25;5037519;28;20380;-32
2022/11/15 03:46:31;;;;;;;76.32;25.95;;;;;;;-143.48;99.22;78591.25;5036742;28;20036;-32
2022/11/15 03:49:06;;;;;;;70.22;26.92;;;;;;;-143.48;99.21;78585.31;5037211;28;20590;-33
2022/11/15 03:51:31;;;;;;;72.15;27.35;;;;;;;-143.48;99.47;78589.28;5037498;28;20018;-33
2022/11/15 03:53:57;;;;;;;82.28;27.48;;;;;;;-143.48;99.71;78583.31;5037275;28;20353;-32
2022/11/15 03:56:22;;;;;;;83.07;25.42;;;;;;;-143.48;99.83;78571.44;5037705;28;20025;-33
2022/11/15 03:58:47;;;;;;;77.50;26.30;;;;;;;-143.48;99.85;78563.50;5037359;28;20037;-34
2022/11/15 04:01:13;;;;;;;70.97;25.95;;;;;;;-143.48;99.63;78553.56;5037048;28;20053;-33
2022/11/15 04:03:38;;;;;;;71.68;26.50;;;;;;;-143.48;99.58;78541.69;5036949;28;20100;-33
2022/11/15 04:06:03;;;;;;;71.32;26.15;;;;;;;-143.48;99.62;78533.75;5038018;28;20467;-33
2022/11/15 04:08:29;;;;;;;76.32;26.58;;;;;;;-143.48;99.76;78533.75;5036916;28;20075;-33
2022/11/15 04:10:54;;;;;;;64.65;25.73;;;;;;;-143.48;99.63;78523.81;5037169;28;20029;-33
2022/11/15 04:13:19;;;;;;;58.20;24.45;;;;;;;-143.48;99.40;78519.88;5036393;28;20108;-33
2022/11/15 04:15:45;;;;;;;61.45;25.27;;;;;;;-143.48;99.40;78519.88;5036957;28;20029;-32
2022/11/15 04:18:10;;;;;;;63.65;26.25;;;;;;;-143.48;99.68;78513.91;5037476;28;20033;-33
2022/11/15 04:26:10;;;;;;;57.47;24.10;;;;;;;-143.48;99.40;78504.00;5037377;28;20091;-32
2022/11/15 04:28:35;;;;;;;58.42;24.45;;;;;;;-143.48;99.55;78498.03;5036180;28;20105;-33
2022/11/15 04:31:00;;;;;;;58.67;24.52;;;;;;;-143.48;99.35;78494.06;5036996;28;20163;-32
2022/11/15 04:33:26;;;;;;;56.40;24.70;;;;;;;-143.48;99.35;78498.03;5036650;28;20118;-32
2022/11/15 04:38:35;;;;;;;46.65;23.02;;;;;;;-143.48;99.47;78486.16;5036877;28;20052;-33
2022/11/15 04:41:01;;;;;;;53.45;23.13;;;;;;;-143.48;99.24;78482.19;5037054;28;20372;-33
2022/11/15 04:43:28;;;;;;;48.50;23.45;;;;;;;-143.48;99.45;78480.19;5036446;28;20082;-33
2022/11/15 04:45:53;;;;;;;50.75;23.20;;;;;;;-143.48;99.33;78468.28;5036119;28;20022;-33
2022/11/15 04:48:18;;;;;;;47.95;23.02;;;;;;;-143.48;99.28;78468.28;5034447;28;20028;-33
2022/11/15 04:50:44;;;;;;;48.20;22.75;;;;;;;-143.48;99.12;78460.38;5036479;28;20040;-33
2022/11/15 04:53:09;;;;;;;47.40;22.38;;;;;;;-143.48;98.95;78460.38;5036590;28;20114;-32
2022/11/15 04:55:34;;;;;;;48.63;21.50;;;;;;;-143.48;98.97;78456.41;5036021;28;20026;-33
2022/11/15 04:58:01;;;;;;;41.22;22.80;;;;;;;-143.48;98.65;78446.47;5035942;28;20532;-33
2022/11/15 05:00:28;;;;;;;47.38;21.67;;;;;;;-143.48;98.72;78456.41;5035018;28;20029;-33
2022/11/15 05:05:37;;;;;;;44.30;21.30;;;;;;;-143.48;98.82;78464.34;5036391;28;20099;-33
2022/11/15 05:08:03;;;;;;;45.17;21.00;;;;;;;-143.48;98.87;78472.25;5036417;28;20029;-33
2022/11/15 05:10:28;;;;;;;45.25;21.92;;;;;;;-143.48;98.94;78460.38;5036002;28;20057;-32
2022/11/15 05:12:54;;;;;;;47.08;22.52;;;;;;;-143.48;98.83;78456.41;5035712;28;20131;-32
2022/11/15 05:15:19;;;;;;;38.70;20.45;;;;;;;-143.48;98.93;78464.34;5035101;28;20025;-33
2022/11/15 05:17:44;;;;;;;38.45;20.08;;;;;;;-143.48;98.94;78466.31;5034576;28;20029;-33
2022/11/15 05:20:10;;;;;;;43.88;21.85;;;;;;;-143.48;99.12;78464.34;5035406;28;20045;-33
2022/11/15 05:22:36;;;;;;;43.88;21.08;;;;;;;-143.48;99.06;78456.41;5035713;28;20472;-33
2022/11/15 05:25:01;;;;;;;39.67;20.60;;;;;;;-143.48;98.97;78462.34;5035767;28;20021;-33
2022/11/15 05:27:26;;;;;;;42.90;20.35;;;;;;;-143.48;99.07;78454.41;5035938;28;20100;-33
2022/11/15 05:29:52;;;;;;;43.05;20.73;;;;;;;-143.48;99.01;78448.47;5017587;28;20112;-32
2022/11/15 05:32:17;;;;;;;35.28;20.23;;;;;;;-143.48;98.89;78438.53;5035298;28;20030;-32
2022/11/15 05:34:43;;;;;;;39.50;19.92;;;;;;;-143.48;98.69;78438.53;5035305;28;20083;-33
2022/11/15 05:37:09;;;;;;;35.83;19.33;;;;;;;-143.48;98.78;78428.63;5035803;28;20375;-33
2022/11/15 05:39:35;;;;;;;32.17;18.77;;;;;;;-143.48;98.58;78426.66;5035152;28;20025;-32
2022/11/15 05:42:07;;;;;;;38.10;19.20;;;;;;;-143.48;98.42;78418.72;5035078;28;20105;-33
2022/11/15 05:44:34;;;;;;;36.03;18.70;;;;;;;-143.48;98.42;78416.72;5035036;28;20117;-33
2022/11/15 05:46:59;;;;;;;34.28;17.73;;;;;;;-143.48;98.06;78412.75;5035157;28;20027;-33
2022/11/15 05:49:30;;;;;;;36.05;18.02;;;;;;;-143.48;97.88;78404.84;5035240;28;20375;-33
2022/11/15 05:51:57;;;;;;;37.05;18.52;;;;;;;-143.48;97.73;78410.78;5035119;28;20025;-33
2022/11/15 05:54:23;;;;;;;35.15;17.85;;;;;;;-143.48;97.81;78400.88;5034662;28;20035;-33
2022/11/15 05:56:49;;;;;;;32.95;18.05;;;;;;;-143.48;97.45;78396.91;5034749;28;20025;-32
2022/11/15 05:59:15;;;;;;;33.00;18.02;;;;;;;-143.48;97.31;78390.94;5035130;28;20039;-33
2022/11/15 06:01:40;;;;;;;33.63;17.70;;;;;;;-143.48;97.24;78388.97;5034723;28;20025;-33
2022/11/15 06:04:06;;;;;;;39.05;18.88;;;;;;;-143.48;97.27;78385.00;5016954;28;20033;-33
2022/11/15 06:06:31;;;;;;;33.53;18.45;;;;;;;-143.48;96.80;78390.94;5034702;28;20030;-33
2022/11/15 06:08:56;;;;;;;38.55;17.95;;;;;;;-143.48;97.14;78394.91;5034617;28;20064;-33
2022/11/15 06:11:21;;;;;;;39.53;18.48;;;;;;;-143.48;96.96;78392.94;5034813;28;20453;-32
2022/11/15 06:13:47;;;;;;;37.53;17.90;;;;;;;-143.48;96.81;78388.97;5034653;28;20025;-33
2022/11/15 06:16:12;;;;;;;36.55;17.70;;;;;;;-143.48;96.68;78381.03;5034760;28;20461;-33
2022/11/15 06:18:38;;;;;;;34.70;18.27;;;;;;;-143.48;96.66;78383.00;5034659;28;20159;-33
2022/11/15 06:21:04;;;;;;;32.78;18.10;;;;;;;-143.48;96.52;78385.00;5034411;28;20408;-33
2022/11/15 06:23:34;;;;;;;34.75;18.05;;;;;;;-143.48;96.47;78377.06;5016587;28;20017;-33
2022/11/15 06:26:01;;;;;;;35.35;17.42;;;;;;;-143.48;96.26;78381.03;5034354;28;20029;-33
2022/11/15 06:28:31;;;;;;;37.05;17.83;;;;;;;-143.48;96.21;78381.03;5034447;28;20026;-33
2022/11/15 06:31:08;;;;;;;35.17;17.23;;;;;;;-143.48;96.04;78383.00;5034654;28;20032;-33
2022/11/15 06:33:33;;;;;;;30.48;17.75;;;;;;;-143.48;96.34;78386.97;5016342;28;20048;-33
2022/11/15 06:36:07;;;;;;;31.52;17.55;;;;;;;-143.48;96.47;78385.00;5034443;28;20025;-33
2022/11/15 06:38:33;;;;;;;35.55;17.95;;;;;;;-143.48;96.31;78381.03;5034311;28;20022;-33
2022/11/15 06:41:03;;;;;;;35.40;18.00;;;;;;;-143.48;96.34;78383.00;5033815;28;20029;-34
2022/11/15 06:43:28;;;;;;;35.92;16.95;;;;;;;-143.48;96.35;78388.97;5034175;28;20024;-33
2022/11/15 06:45:54;;;;;;;31.45;18.15;;;;;;;-143.48;96.45;78392.94;5034009;28;20437;-33
2022/11/15 06:48:19;;;;;;;34.05;17.38;;;;;;;-143.48;96.47;78385.00;5033645;28;20051;-33
2022/11/15 06:50:51;;;;;;;31.02;17.92;;;;;;;-143.48;96.46;78394.91;5033894;28;20171;-33
2022/11/15 06:53:16;;;;;;;32.37;17.43;;;;;;;-143.48;97.05;78390.94;5034017;28;20025;-33
2022/11/15 06:55:42;;;;;;;35.60;18.17;;;;;;;-143.48;96.73;78390.94;5033814;28;20267;-34
2022/11/15 06:58:07;;;;;;;36.00;17.48;;;;;;;-143.48;96.60;78390.94;5033638;28;20067;-32
2022/11/15 07:00:32;;;;;;;32.08;16.92;;;;;;;-143.48;96.57;78394.91;5033604;28;20027;-32
2022/11/15 07:03:00;;;;;;;31.55;17.48;;;;;;;-143.48;96.68;78392.94;5033816;28;20029;-32
2022/11/15 07:05:26;;;;;;;34.45;17.85;;;;;;;-143.48;96.73;78402.84;5033886;28;20036;-32
2022/11/15 07:07:53;;;;;;;35.50;17.00;;;;;;;-143.48;96.70;78400.88;5032965;28;20028;-33
2022/11/15 07:10:19;;;;;;;30.50;17.65;;;;;;;-143.48;96.52;78392.94;5033965;28;20456;-33
2022/11/15 07:12:48;;;;;;;28.73;16.90;;;;;;;-143.48;96.21;78400.88;5033378;28;20023;-33
2022/11/15 07:15:15;;;;;;;27.52;15.85;;;;;;;-143.48;96.25;78412.75;5032691;28;20042;-33
2022/11/15 07:17:41;;;;;;;30.95;16.88;;;;;;;-143.48;96.57;78408.81;5014033;28;20064;-33
2022/11/15 07:20:07;;;;;;;32.00;16.58;;;;;;;-143.48;96.35;78404.84;5032551;28;20073;-33
2022/11/15 07:22:32;;;;;;;30.55;16.83;;;;;;;-143.48;96.23;78408.81;5032583;28;20564;-33
2022/11/15 07:24:57;;;;;;;32.72;17.45;;;;;;;-143.48;96.07;78392.94;5031823;28;20026;-33
2022/11/15 07:27:23;;;;;;;31.60;16.40;;;;;;;-143.48;95.67;78406.81;5031165;28;20610;-33
2022/11/15 07:29:48;;;;;;;32.90;16.83;;;;;;;-143.48;95.52;78394.91;5031253;28;20065;-34
2022/11/15 07:32:19;;;;;;;31.30;16.40;;;;;;;-143.48;95.36;78402.84;5031187;28;20021;-34
2022/11/15 07:34:49;;;;;;;32.22;16.73;;;;;;;-143.48;95.11;78404.84;5013110;28;20040;-34
2022/11/15 07:37:14;;;;;;;30.20;16.90;;;;;;;-143.48;95.39;78408.81;5030293;28;20029;-34
2022/11/15 07:39:40;;;;;;;36.33;16.70;;;;;;;-143.48;94.96;78402.84;5012794;28;20022;-34
2022/11/15 07:44:59;;;;;;;30.30;16.15;;;;;;;-143.48;95.35;78398.88;5032648;28;20117;-33
2022/11/15 07:47:25;;;;;;;30.00;16.23;;;;;;;-143.48;95.33;78385.00;5031811;28;20120;-38
2022/11/15 07:49:50;;;;;;;31.00;15.23;;;;;;;-143.48;94.31;78377.06;5014226;28;20453;-33
2022/11/15 07:52:16;;;;;;;29.85;15.57;;;;;;;-143.48;94.20;78365.16;5032094;28;20025;-33
2022/11/15 07:54:41;;;;;;;31.70;14.60;;;;;;;-143.48;93.61;78371.13;5030914;28;20029;-33
2022/11/15 07:57:08;;;;;;;28.58;14.55;;;;;;;-143.48;92.92;78355.25;5030474;28;20465;-33
2022/11/15 07:59:34;;;;;;;25.92;14.02;;;;;;;-143.48;92.26;78347.31;5030289;28;20025;-33
2022/11/15 08:02:00;;;;;;;25.75;14.23;;;;;;;-143.48;91.94;78353.28;5030847;28;20048;-33
2022/11/15 08:04:25;;;;;;;27.77;13.80;;;;;;;-143.48;92.68;78369.13;5032805;28;20112;-33
2022/11/15 08:06:50;;;;;;;26.50;13.27;;;;;;;-143.48;92.78;78373.09;5033128;28;20021;-33
2022/11/15 08:09:16;;;;;;;23.90;14.25;;;;;;;-143.48;93.14;78369.13;5031330;28;20033;-33
2022/11/15 08:11:41;;;;;;;24.83;13.80;;;;;;;-143.48;93.04;78375.09;5032293;28;20033;-33
2022/11/15 08:14:06;;;;;;;25.55;13.40;;;;;;;-143.48;92.98;78373.09;5032723;28;20440;-33
2022/11/15 08:16:32;;;;;;;27.63;13.70;;;;;;;-143.48;92.80;78371.13;5033111;28;20034;-32
2022/11/15 08:18:57;;;;;;;27.50;13.60;;;;;;;-143.48;93.12;78359.22;5035457;28;20136;-32
2022/11/15 08:21:23;;;;;;;25.13;13.43;;;;;;;-143.48;92.59;78353.28;5036354;28;20037;-32
2022/11/15 08:23:48;;;;;;;25.67;13.70;;;;;;;-143.48;91.86;78353.28;5035935;28;20032;-33
2022/11/15 08:26:14;;;;;;;24.65;13.05;;;;;;;-143.48;92.04;78341.38;5035956;28;20029;-33
2022/11/15 08:28:39;;;;;;;24.92;13.20;;;;;;;-143.48;92.22;78359.22;5034336;28;20453;-33
2022/11/15 08:31:05;;;;;;;25.77;12.73;;;;;;;-143.48;92.34;78341.38;5036389;28;20017;-33
2022/11/15 08:33:32;;;;;;;21.25;11.93;;;;;;;-143.48;91.92;78341.38;5034352;28;20025;-33
2022/11/15 08:35:58;;;;;;;26.95;12.80;;;;;;;-143.48;92.78;78357.22;5034059;28;20121;-32
2022/11/15 08:38:24;;;;;;;21.67;12.50;;;;;;;-143.48;92.78;78343.34;5034258;28;20018;-32
2022/11/15 08:40:54;;;;;;;24.80;12.13;;;;;;;-143.48;92.63;78341.38;5034658;28;20096;-32
2022/11/15 08:43:19;;;;;;;21.85;12.02;;;;;;;-143.48;92.33;78337.41;5034746;28;20078;-32
2022/11/15 08:45:44;;;;;;;23.88;11.80;;;;;;;-143.48;91.69;78321.53;5033809;28;20029;-33
2022/11/15 08:48:10;;;;;;;23.05;11.45;;;;;;;-143.48;91.38;78313.59;5035251;28;20032;-32
2022/11/15 08:50:35;;;;;;;19.13;10.68;;;;;;;-143.48;90.46;78289.81;5036061;28;20029;-32
2022/11/15 08:53:06;;;;;;;20.48;10.88;;;;;;;-143.48;89.20;78268.00;5036299;28;20372;-32
2022/11/15 08:55:31;;;;;;;18.67;10.25;;;;;;;-143.48;88.37;78289.81;5035925;28;20029;-32
2022/11/15 08:57:57;;;;;;;22.48;10.07;;;;;;;-143.48;89.23;78307.66;5036236;28;20029;-32
2022/11/15 09:00:22;;;;;;;21.48;9.55;;;;;;;-143.48;89.52;78291.78;5035969;28;20029;-32
2022/11/15 09:02:48;;;;;;;20.38;10.50;;;;;;;-143.48;88.06;78266.00;5036107;28;20109;-32
2022/11/15 09:05:14;;;;;;;20.73;9.88;;;;;;;-143.48;87.14;78258.06;5036132;28;20017;-32
2022/11/15 09:07:40;;;;;;;17.13;9.30;;;;;;;-143.48;86.01;78244.19;5035587;28;20021;-32
2022/11/15 09:10:05;;;;;;;18.55;9.52;;;;;;;-143.48;86.50;78264.03;5035700;28;20061;-32
2022/11/15 09:12:31;;;;;;;17.67;9.23;;;;;;;-143.48;85.59;78234.28;5035743;28;20022;-32
2022/11/15 09:14:56;;;;;;;15.93;8.90;;;;;;;-143.48;85.07;78222.38;5035775;28;20025;-32
2022/11/15 09:17:21;;;;;;;22.33;9.35;;;;;;;-143.48;83.74;78170.81;5035853;28;20045;-34
2022/11/15 09:19:47;;;;;;;14.27;7.63;;;;;;;-143.48;81.69;78190.66;5035500;28;20037;-32
2022/11/15 09:22:12;;;;;;;21.10;7.47;;;;;;;-143.48;81.14;78172.81;5035812;28;20469;-32
2022/11/15 09:24:37;;;;;;;15.90;7.63;;;;;;;-143.48;80.64;78168.84;5035546;28;20036;-32
2022/11/15 09:27:02;;;;;;;20.75;7.47;;;;;;;-143.48;82.05;78218.41;5035417;28;20433;-32
2022/11/15 09:29:28;;;;;;;13.80;7.55;;;;;;;-143.48;82.94;78234.28;5034749;28;20036;-33
2022/11/15 09:31:53;;;;;;;14.57;7.05;;;;;;;-143.48;76.80;78033.97;5035335;28;20469;-33
2022/11/15 09:34:19;;;;;;;14.25;6.72;;;;;;;-143.48;70.49;77952.69;5034499;28;20067;-33
2022/11/15 09:36:44;;;;;;;13.52;6.88;;;;;;;-143.48;67.81;77855.50;5034602;28;20045;-32
2022/11/15 09:39:09;;;;;;;14.25;6.38;;;;;;;-143.48;60.65;77609.63;5034635;28;20021;-33
2022/11/15 09:42:01;;;;;;;12.48;5.95;;;;;;;-143.48;64.88;77911.03;5034812;28;20104;-33
2022/11/15 09:44:35;;;;;;;13.55;5.82;;;;;;;-143.48;64.66;77794.03;5034985;28;20073;-34
2022/11/15 09:47:33;;;;;;;9.77;5.43;;;;;;;-143.48;63.16;77849.56;5035453;28;20033;-33
2022/11/15 09:50:00;;;;;;;10.40;5.32;;;;;;;-143.48;59.05;77655.25;5029204;28;20043;-33
2022/11/15 09:52:25;;;;;;;15.55;5.30;;;;;;;-143.48;55.27;77518.44;5035121;28;20057;-35
2022/11/15 09:54:52;;;;;;;11.30;5.18;;;;;;;-143.48;56.84;77647.31;5034815;28;20524;-33
2022/11/15 09:57:32;;;;;;;9.65;5.22;;;;;;;-143.48;60.63;77821.81;5034771;28;20499;-33
2022/11/15 10:00:19;;;;;;;12.48;5.10;;;;;;;-143.48;60.24;77815.84;5034642;28;20029;-33
2022/11/15 10:03:06;;;;;;;9.25;5.03;;;;;;;-143.48;59.49;77792.06;5034948;28;20376;-33
2022/11/15 10:05:37;;;;;;;10.20;5.07;;;;;;;-143.48;64.04;77940.78;5034647;28;20083;-32
2022/11/15 10:08:13;;;;;;;13.05;4.80;;;;;;;-143.48;62.25;77823.78;5034820;28;20017;-33
2022/11/15 10:10:46;;;;;;;11.73;5.13;;;;;;;-143.48;63.68;77817.84;5034493;28;20025;-32
2022/11/15 10:13:22;;;;;;;9.77;5.00;;;;;;;-143.48;58.61;77798.00;5034714;28;20057;-33
2022/11/15 10:15:48;;;;;;;10.00;4.13;;;;;;;-143.48;53.21;77536.28;5034444;28;20033;-33
2022/11/15 10:18:19;;;;;;;8.07;4.43;;;;;;;-143.48;52.99;77617.56;5034615;28;20079;-33
2022/11/15 10:20:48;;;;;;;7.78;4.20;;;;;;;-143.48;57.55;77734.56;5034343;28;20128;-34
2022/11/15 10:23:17;;;;;;;12.57;4.38;;;;;;;-143.48;64.36;78055.81;5034626;28;20021;-33
2022/11/15 10:25:43;;;;;;;8.35;3.65;;;;;;;-143.48;62.04;77905.09;5034184;28;20033;-33
2022/11/15 10:28:22;;;;;;;9.68;4.07;;;;;;;-143.48;64.12;78008.22;5034167;28;20451;-31
2022/11/15 10:30:58;;;;;;;9.07;3.95;;;;;;;-143.48;65.99;78055.81;5016353;28;20083;-32
2022/11/15 10:33:24;;;;;;;8.32;4.40;;;;;;;-143.48;61.60;77837.66;5034307;28;20029;-32
2022/11/15 10:36:12;;;;;;;9.40;4.10;;;;;;;-143.48;56.57;77722.66;5033836;28;20025;-32
2022/11/15 10:38:49;;;;;;;8.07;4.03;;;;;;;-143.48;53.84;77607.66;5033677;28;20080;-33
2022/11/15 10:41:34;;;;;;;8.43;3.95;;;;;;;-143.48;54.36;77663.19;5033945;28;20025;-33
2022/11/15 10:44:21;;;;;;;7.95;3.80;;;;;;;-143.48;58.75;77889.22;5033794;28;20060;-33
2022/11/15 10:46:55;;;;;;;11.73;3.80;;;;;;;-143.48;57.93;77803.97;5034158;28;20510;-32
2022/11/15 10:49:22;;;;;;;8.55;4.10;;;;;;;-143.48;61.21;77861.47;5033824;28;20029;-32
2022/11/15 10:51:54;;;;;;;8.23;3.95;;;;;;;-143.48;53.15;77540.25;5034007;28;20091;-34
2022/11/15 10:54:35;;;;;;;9.90;4.03;;;;;;;-143.48;52.29;77579.91;5033543;28;20464;-35
2022/11/15 10:57:15;;;;;;;9.60;3.67;;;;;;;-143.48;49.14;77375.66;5034256;28;20126;-33
2022/11/15 10:59:46;;;;;;;10.48;3.58;;;;;;;-143.48;47.62;77367.75;5033919;28;20079;-34
2022/11/15 11:02:29;;;;;;;10.25;3.65;;;;;;;-143.48;52.55;77645.31;5033692;28;20484;-33
2022/11/15 11:04:54;;;;;;;9.80;4.00;;;;;;;-143.48;56.02;77738.53;5033489;28;20055;-33
2022/11/15 11:07:23;;;;;;;11.75;3.53;;;;;;;-143.48;50.47;77458.94;5032686;28;20028;-33
2022/11/15 11:09:57;;;;;;;6.75;3.30;;;;;;;-143.48;45.48;77280.50;5033420;28;20028;-33
2022/11/15 11:12:33;;;;;;;8.52;3.00;;;;;;;-143.48;43.60;77187.31;5033540;28;20510;-33
2022/11/15 11:15:11;;;;;;;5.45;2.70;;;;;;;-143.48;46.22;77328.09;5033270;28;20040;-34
2022/11/15 11:17:57;;;;;;;5.25;2.75;;;;;;;-143.48;47.82;77453.00;5033191;28;20033;-33
2022/11/15 11:20:33;;;;;;;5.20;2.38;;;;;;;-143.48;48.70;77579.91;5033533;28;20045;-32
2022/11/15 11:23:24;;;;;;;4.80;2.45;;;;;;;-143.48;49.95;77599.72;5033635;28;20465;-32
2022/11/15 11:26:33;;;;;;;9.40;2.90;;;;;;;-143.48;49.90;77581.88;5032413;28;20061;-33
2022/11/15 11:29:29;;;;;;;7.22;2.50;;;;;;;-143.48;52.37;77696.88;5015489;28;20033;-32